Minturn, Maine
Current Conditions -  °F | °C
As of 11:55 AM on Tuesday 27 Jan 2015 (Local Time) from KBHB Reporting Station
Overcast Overcast  
Wind Chill: -10°   Ceiling: 1500
Heat Index: 12°   Visibility: 0.5mi
Dew Point: 12°   Wind: 32mph
Humidity: 100%   Direction: 20°NNE
Pressure: 29.56"   Gusts: 48mph
Location:  44.1451°N, 68.4525°W
Report Text: KBHB 271655Z 02028G42KT 1/2SM OVC015 M11/M11 A2956 RMK AO1
Loading
Personal Weather Stations






























Interactive Weather Map New forecast layout! Learn more

10-Day Weather Forecast

Advertisements
Track Severe Weather on mobile